createdAt,value
2022-11-03T00:01:37.441Z,11.80
2022-11-03T00:04:06.426Z,11.90
2022-11-03T00:06:34.777Z,11.90
2022-11-03T00:09:05.439Z,11.90
2022-11-03T00:11:34.530Z,11.90
2022-11-03T00:14:03.108Z,11.80
2022-11-03T00:16:31.235Z,11.80
2022-11-03T00:19:00.823Z,11.90
2022-11-03T00:21:29.458Z,11.90
2022-11-03T00:23:57.520Z,11.90
2022-11-03T00:26:26.789Z,11.90
2022-11-03T00:28:56.198Z,11.90
2022-11-03T00:31:26.526Z,11.80
2022-11-03T00:33:55.621Z,11.80
2022-11-03T00:36:26.945Z,11.80
2022-11-03T00:38:55.542Z,11.80
2022-11-03T00:41:24.556Z,11.80
2022-11-03T00:43:53.402Z,11.70
2022-11-03T00:46:23.490Z,11.70
2022-11-03T00:48:52.123Z,11.90
2022-11-03T00:51:21.809Z,11.80
2022-11-03T00:53:53.343Z,11.80
2022-11-03T00:56:23.161Z,11.80
2022-11-03T00:58:52.543Z,11.80
2022-11-03T01:01:22.350Z,11.90
2022-11-03T01:04:06.978Z,11.90
2022-11-03T01:06:52.253Z,11.80
2022-11-03T01:09:23.551Z,11.80
2022-11-03T01:11:58.319Z,11.80
2022-11-03T01:14:28.022Z,11.80
2022-11-03T01:16:55.949Z,11.80
2022-11-03T01:19:25.302Z,11.80
2022-11-03T01:21:53.625Z,11.80
2022-11-03T01:24:23.159Z,11.80
2022-11-03T01:26:51.583Z,11.90
2022-11-03T01:29:19.970Z,11.80
2022-11-03T01:31:47.983Z,11.80
2022-11-03T01:34:17.390Z,11.80
2022-11-03T01:36:45.969Z,11.90
2022-11-03T01:39:15.203Z,11.90
2022-11-03T01:41:45.862Z,11.90
2022-11-03T01:44:35.808Z,11.80
2022-11-03T01:47:10.630Z,11.80
2022-11-03T01:49:45.597Z,11.80
2022-11-03T01:52:18.844Z,11.80
2022-11-03T01:54:52.907Z,11.80
2022-11-03T01:57:26.372Z,11.90
2022-11-03T01:59:56.011Z,11.90
2022-11-03T02:02:27.363Z,11.80
2022-11-03T02:04:58.229Z,11.80
2022-11-03T02:07:31.913Z,11.80
2022-11-03T02:10:00.203Z,11.80
2022-11-03T02:12:30.624Z,11.80
2022-11-03T02:15:02.601Z,11.80
2022-11-03T02:17:32.348Z,11.80
2022-11-03T02:20:04.421Z,11.70
2022-11-03T02:22:57.359Z,11.80
2022-11-03T02:25:54.274Z,11.80
2022-11-03T02:28:24.975Z,11.80
2022-11-03T02:31:00.948Z,11.80
2022-11-03T02:33:38.905Z,11.80
2022-11-03T02:36:12.874Z,11.80
2022-11-03T02:38:49.129Z,11.80
2022-11-03T02:41:19.963Z,11.90
2022-11-03T02:43:49.687Z,11.80
2022-11-03T02:46:19.424Z,11.80
2022-11-03T02:48:49.426Z,11.80
2022-11-03T02:51:17.545Z,11.80
2022-11-03T02:53:54.423Z,11.80
2022-11-03T02:56:25.714Z,11.80
2022-11-03T02:58:58.548Z,11.80
2022-11-03T03:01:34.943Z,11.80
2022-11-03T03:04:07.388Z,11.80
2022-11-03T03:06:41.052Z,11.80
2022-11-03T03:09:15.088Z,11.80
2022-11-03T03:11:45.920Z,11.80
2022-11-03T03:14:16.450Z,11.80
2022-11-03T03:16:51.624Z,11.90
2022-11-03T03:19:25.195Z,11.80
2022-11-03T03:21:56.487Z,11.90
2022-11-03T03:24:32.202Z,11.80
2022-11-03T03:27:04.948Z,11.90
2022-11-03T03:29:39.134Z,11.80
2022-11-03T03:32:10.804Z,11.80
2022-11-03T03:34:42.846Z,11.80
2022-11-03T03:37:13.140Z,11.80
2022-11-03T03:39:43.845Z,11.80
2022-11-03T03:42:15.105Z,11.80
2022-11-03T03:44:44.586Z,11.80
2022-11-03T03:47:16.484Z,11.80
2022-11-03T03:49:44.864Z,11.80
2022-11-03T03:52:13.405Z,11.80
2022-11-03T03:54:41.336Z,11.70
2022-11-03T03:57:16.606Z,11.70
2022-11-03T03:59:44.761Z,11.70
2022-11-03T04:02:13.420Z,11.70
2022-11-03T04:04:41.725Z,11.70
2022-11-03T04:07:28.239Z,11.70
2022-11-03T04:09:56.261Z,11.70
2022-11-03T04:12:43.007Z,11.80
2022-11-03T04:15:31.625Z,11.80
2022-11-03T04:18:17.107Z,11.80
2022-11-03T04:21:02.489Z,11.80
2022-11-03T04:23:30.618Z,11.80
2022-11-03T04:25:58.759Z,11.80
2022-11-03T04:28:28.290Z,11.80
2022-11-03T04:30:59.577Z,11.90
2022-11-03T04:33:30.023Z,11.90
2022-11-03T04:36:00.234Z,11.90
2022-11-03T04:38:30.306Z,11.80
2022-11-03T04:40:59.751Z,11.80
2022-11-03T04:43:35.845Z,11.80
2022-11-03T04:46:04.397Z,11.80
2022-11-03T04:48:32.435Z,11.80
2022-11-03T04:51:03.557Z,11.80
2022-11-03T04:53:33.978Z,11.70
2022-11-03T04:56:07.275Z,11.70
2022-11-03T04:58:37.581Z,11.70
2022-11-03T05:01:11.563Z,11.60
2022-11-03T05:03:41.803Z,11.60
2022-11-03T05:06:15.026Z,11.60
2022-11-03T05:08:45.041Z,11.60
2022-11-03T05:11:26.502Z,11.60
2022-11-03T05:14:00.361Z,11.60
2022-11-03T05:16:29.569Z,11.60
2022-11-03T05:18:57.937Z,11.70
2022-11-03T05:21:28.070Z,11.70
2022-11-03T05:23:59.281Z,11.80
2022-11-03T05:26:32.211Z,11.80
2022-11-03T05:29:04.642Z,11.80
2022-11-03T05:31:35.423Z,11.80
2022-11-03T05:34:14.029Z,11.80
2022-11-03T05:36:42.000Z,11.80
2022-11-03T05:39:23.684Z,11.80
2022-11-03T05:41:51.629Z,11.80
2022-11-03T05:44:28.692Z,11.80
2022-11-03T05:46:57.828Z,11.80
2022-11-03T05:49:25.801Z,11.80
2022-11-03T05:51:53.776Z,11.80
2022-11-03T05:54:25.328Z,11.80
2022-11-03T05:56:53.280Z,11.80
2022-11-03T05:59:27.856Z,11.90
2022-11-03T06:02:01.043Z,11.90
2022-11-03T06:04:33.782Z,11.90
2022-11-03T06:07:04.126Z,11.90
2022-11-03T06:09:34.786Z,11.80
2022-11-03T06:12:05.733Z,11.90
2022-11-03T06:14:37.393Z,11.90
2022-11-03T06:17:07.512Z,11.80
2022-11-03T06:19:39.144Z,11.80
2022-11-03T06:22:15.286Z,11.80
2022-11-03T06:24:43.713Z,11.80
2022-11-03T06:27:14.967Z,11.80
2022-11-03T06:29:50.244Z,11.80
2022-11-03T06:32:18.864Z,11.80
2022-11-03T06:34:48.614Z,11.80
2022-11-03T06:37:27.364Z,11.80
2022-11-03T06:40:01.467Z,11.80
2022-11-03T06:42:33.115Z,11.90
2022-11-03T06:45:10.995Z,11.90
2022-11-03T06:47:42.001Z,11.90
2022-11-03T06:50:23.143Z,11.90
2022-11-03T06:52:51.647Z,12.00
2022-11-03T06:55:26.001Z,12.00
2022-11-03T06:57:56.871Z,12.10
2022-11-03T07:00:40.343Z,12.10
2022-11-03T07:03:14.446Z,12.10
2022-11-03T07:05:42.900Z,12.10
2022-11-03T07:08:24.489Z,12.10
2022-11-03T07:10:58.227Z,12.10
2022-11-03T07:13:26.852Z,12.10
2022-11-03T07:15:56.169Z,12.10
2022-11-03T07:18:26.904Z,12.10
2022-11-03T07:20:56.656Z,12.20
2022-11-03T07:23:27.853Z,12.20
2022-11-03T07:26:00.549Z,12.20
2022-11-03T07:28:33.925Z,12.20
2022-11-03T07:31:16.420Z,12.20
2022-11-03T07:33:44.959Z,12.30
2022-11-03T07:36:20.954Z,12.30
2022-11-03T07:38:52.669Z,12.40
2022-11-03T07:41:23.213Z,12.50
2022-11-03T07:43:55.624Z,12.60
2022-11-03T07:46:26.449Z,12.60
2022-11-03T07:48:57.428Z,12.70
2022-11-03T07:51:28.541Z,12.70
2022-11-03T07:54:02.164Z,12.80
2022-11-03T07:56:35.709Z,12.80
2022-11-03T07:59:17.333Z,12.90
2022-11-03T08:01:49.502Z,13.00
2022-11-03T08:04:21.215Z,13.00
2022-11-03T08:06:49.642Z,13.10
2022-11-03T08:09:18.040Z,13.10
2022-11-03T08:11:46.188Z,13.10
2022-11-03T08:14:14.211Z,13.10
2022-11-03T08:16:42.213Z,13.10
2022-11-03T08:19:11.681Z,13.20
2022-11-03T08:21:39.650Z,13.20
2022-11-03T08:24:07.945Z,13.20
2022-11-03T08:26:35.924Z,13.20
2022-11-03T08:29:04.000Z,13.20
2022-11-03T08:31:32.009Z,13.30
2022-11-03T08:34:00.020Z,13.30
2022-11-03T08:36:29.332Z,13.40
2022-11-03T08:38:57.438Z,13.40
2022-11-03T08:41:25.456Z,13.40
2022-11-03T08:43:53.437Z,13.40
2022-11-03T08:46:21.464Z,13.50
2022-11-03T08:48:49.522Z,13.50
2022-11-03T08:51:17.601Z,13.60
2022-11-03T08:53:50.515Z,13.70
2022-11-03T08:56:21.913Z,13.70
2022-11-03T08:58:50.785Z,13.80
2022-11-03T09:01:19.016Z,13.80
2022-11-03T09:03:47.229Z,13.90
2022-11-03T09:06:15.293Z,14.00
2022-11-03T09:11:32.540Z,14.00
2022-11-03T09:14:00.654Z,14.00
2022-11-03T09:16:29.086Z,14.00
2022-11-03T09:18:57.038Z,14.00
2022-11-03T09:21:25.117Z,14.00
2022-11-03T09:23:53.457Z,14.00
2022-11-03T09:26:21.713Z,14.00
2022-11-03T09:28:51.018Z,14.00
2022-11-03T09:31:19.086Z,14.00
2022-11-03T09:33:47.060Z,14.00
2022-11-03T09:36:15.085Z,14.00
2022-11-03T09:38:43.120Z,13.90
2022-11-03T09:41:28.205Z,14.00
2022-11-03T09:44:07.144Z,14.00
2022-11-03T09:46:36.538Z,14.00
2022-11-03T09:49:06.068Z,14.00
2022-11-03T09:51:36.595Z,13.90
2022-11-03T09:54:06.670Z,14.00
2022-11-03T09:56:37.907Z,14.00
2022-11-03T09:59:15.675Z,14.00
2022-11-03T10:01:45.888Z,14.00
2022-11-03T10:04:14.120Z,14.10
2022-11-03T10:06:42.196Z,14.10
2022-11-03T10:09:15.566Z,14.10
2022-11-03T10:11:44.541Z,14.20
2022-11-03T10:14:16.774Z,14.20
2022-11-03T10:16:53.176Z,14.30
2022-11-03T10:19:21.628Z,14.40
2022-11-03T10:21:49.646Z,14.40
2022-11-03T10:24:17.668Z,14.50
2022-11-03T10:26:47.753Z,14.50
2022-11-03T10:29:21.956Z,14.60
2022-11-03T10:31:51.970Z,14.70
2022-11-03T10:34:28.766Z,14.80
2022-11-03T10:37:21.697Z,14.80
2022-11-03T10:39:50.976Z,14.80
2022-11-03T10:42:21.364Z,14.80
2022-11-03T10:44:53.456Z,14.80
2022-11-03T10:47:27.093Z,14.80
2022-11-03T10:49:56.163Z,14.80
2022-11-03T10:52:26.303Z,14.80
2022-11-03T10:54:55.799Z,14.80
2022-11-03T10:57:24.249Z,14.80
2022-11-03T10:59:55.275Z,14.80
2022-11-03T11:02:25.680Z,14.80
2022-11-03T11:04:59.243Z,14.80
2022-11-03T11:07:33.034Z,14.80
2022-11-03T11:10:08.295Z,14.80
2022-11-03T11:12:36.526Z,14.80
2022-11-03T11:15:27.861Z,14.80
2022-11-03T11:17:55.861Z,14.80
2022-11-03T11:20:42.353Z,14.70
2022-11-03T11:23:50.068Z,14.80
2022-11-03T11:26:32.080Z,14.80
2022-11-03T11:29:41.960Z,14.80
2022-11-03T11:32:51.731Z,14.80
2022-11-03T11:36:06.310Z,14.80
2022-11-03T11:39:12.935Z,14.90
2022-11-03T11:42:06.545Z,14.90
2022-11-03T11:44:54.645Z,14.90
2022-11-03T11:47:31.689Z,14.90
2022-11-03T11:50:22.503Z,14.90
2022-11-03T11:52:56.753Z,14.80
2022-11-03T11:55:32.267Z,14.80
2022-11-03T11:58:02.784Z,14.80
2022-11-03T12:00:32.526Z,14.80
2022-11-03T12:03:02.363Z,14.90
2022-11-03T12:05:32.588Z,14.90
2022-11-03T12:08:00.643Z,14.80
2022-11-03T12:10:31.999Z,14.70
2022-11-03T12:13:01.773Z,14.70
2022-11-03T12:15:49.460Z,14.70
2022-11-03T12:18:38.910Z,14.70
2022-11-03T12:21:10.123Z,14.70
2022-11-03T12:23:41.214Z,14.80
2022-11-03T12:26:18.960Z,14.80
2022-11-03T12:28:47.011Z,14.80
2022-11-03T12:31:15.036Z,14.70
2022-11-03T12:33:43.011Z,14.70
2022-11-03T12:36:11.199Z,14.70
2022-11-03T12:38:39.307Z,14.60
2022-11-03T12:41:24.481Z,14.70
2022-11-03T12:43:55.942Z,14.70
2022-11-03T12:46:24.061Z,14.70
2022-11-03T12:48:52.529Z,14.60
2022-11-03T12:51:21.996Z,14.60
2022-11-03T12:53:50.319Z,14.70
2022-11-03T12:56:19.438Z,14.70
2022-11-03T12:58:47.497Z,14.60
2022-11-03T13:01:16.961Z,14.60
2022-11-03T13:03:45.182Z,14.60
2022-11-03T13:06:14.819Z,14.60
2022-11-03T13:08:44.704Z,14.60
2022-11-03T13:11:28.537Z,14.60
2022-11-03T13:13:56.871Z,14.60
2022-11-03T13:16:26.256Z,14.60
2022-11-03T13:18:54.178Z,14.50
2022-11-03T13:21:22.122Z,14.50
2022-11-03T13:23:50.142Z,14.50
2022-11-03T13:26:18.133Z,14.60
2022-11-03T13:28:46.647Z,14.60
2022-11-03T13:31:14.671Z,14.60
2022-11-03T13:33:43.967Z,14.60
2022-11-03T13:36:12.071Z,14.60
2022-11-03T13:38:40.243Z,14.60
2022-11-03T13:41:09.267Z,14.60
2022-11-03T13:43:38.052Z,14.60
2022-11-03T13:46:06.394Z,14.60
2022-11-03T13:51:24.042Z,14.60
2022-11-03T13:59:28.582Z,14.70
2022-11-03T14:04:45.218Z,14.60
2022-11-03T14:07:14.683Z,14.60
2022-11-03T14:09:42.704Z,14.50
2022-11-03T14:12:28.009Z,14.50
2022-11-03T14:14:56.157Z,14.50
2022-11-03T14:17:24.612Z,14.40
2022-11-03T14:19:56.568Z,14.40
2022-11-03T14:22:30.313Z,14.40
2022-11-03T14:24:58.387Z,14.40
2022-11-03T14:27:26.617Z,14.40
2022-11-03T14:29:55.016Z,14.50
2022-11-03T14:32:23.025Z,14.50
2022-11-03T14:34:51.042Z,14.60
2022-11-03T14:37:19.209Z,14.60
2022-11-03T14:39:51.443Z,14.60
2022-11-03T14:42:18.427Z,14.50
2022-11-03T14:44:47.561Z,14.50
2022-11-03T14:47:18.720Z,14.50
2022-11-03T14:49:47.139Z,14.50
2022-11-03T14:52:15.786Z,14.50
2022-11-03T14:54:44.165Z,14.50
2022-11-03T14:57:13.580Z,14.50
2022-11-03T14:59:41.735Z,14.40
2022-11-03T15:02:09.914Z,14.30
2022-11-03T15:04:37.955Z,14.20
2022-11-03T15:07:05.947Z,14.20
2022-11-03T15:09:33.928Z,14.10
2022-11-03T15:12:01.888Z,14.10
2022-11-03T15:14:31.189Z,14.10
2022-11-03T15:16:59.139Z,14.00
2022-11-03T15:19:27.133Z,14.00
2022-11-03T15:21:55.190Z,13.90
2022-11-03T15:27:11.324Z,13.80
2022-11-03T15:29:40.690Z,13.80
2022-11-03T15:32:08.687Z,13.70
2022-11-03T15:34:36.662Z,13.60
2022-11-03T15:37:04.652Z,13.50
2022-11-03T15:39:32.651Z,13.40
2022-11-03T15:42:00.622Z,13.40
2022-11-03T15:44:28.648Z,13.20
2022-11-03T15:46:58.016Z,13.20
2022-11-03T15:49:25.976Z,13.20
2022-11-03T15:51:53.947Z,13.20
2022-11-03T15:54:21.942Z,13.20
2022-11-03T15:56:50.030Z,13.10
2022-11-03T15:59:18.995Z,13.10
2022-11-03T16:01:47.400Z,13.10
2022-11-03T16:04:17.369Z,13.10
2022-11-03T16:09:33.879Z,13.00
2022-11-03T16:12:02.772Z,13.10
2022-11-03T16:14:31.272Z,13.30
2022-11-03T16:16:59.655Z,13.50
2022-11-03T16:19:29.098Z,13.60
2022-11-03T16:21:57.328Z,13.70
2022-11-03T16:24:33.275Z,13.80
2022-11-03T16:27:03.593Z,13.80
2022-11-03T16:29:31.749Z,13.90
2022-11-03T16:32:00.049Z,13.90
2022-11-03T16:34:29.638Z,13.90
2022-11-03T16:36:57.886Z,13.90
2022-11-03T16:39:26.155Z,13.80
2022-11-03T16:41:55.044Z,13.70
2022-11-03T16:44:23.443Z,13.70
2022-11-03T16:46:51.430Z,13.70
2022-11-03T16:49:19.450Z,13.70
2022-11-03T16:51:48.868Z,13.60
2022-11-03T16:54:16.876Z,13.70
2022-11-03T16:56:46.169Z,13.70
2022-11-03T16:59:15.741Z,13.70
2022-11-03T17:01:43.961Z,13.70
2022-11-03T17:04:12.219Z,13.80
2022-11-03T17:06:40.455Z,13.80
2022-11-03T17:09:13.113Z,13.70
2022-11-03T17:11:41.492Z,13.80
2022-11-03T17:14:13.475Z,13.70
2022-11-03T17:16:45.551Z,13.80
2022-11-03T17:19:14.294Z,13.70
2022-11-03T17:21:42.538Z,13.50
2022-11-03T17:24:13.405Z,13.40
2022-11-03T17:26:51.650Z,13.30
2022-11-03T17:29:22.989Z,13.30
2022-11-03T17:31:52.094Z,13.20
2022-11-03T17:34:23.665Z,13.20
2022-11-03T17:36:53.507Z,13.10
2022-11-03T17:39:29.645Z,13.10
2022-11-03T17:42:11.923Z,13.00
2022-11-03T17:44:40.112Z,13.00
2022-11-03T17:47:08.261Z,13.00
2022-11-03T17:49:36.338Z,13.10
2022-11-03T17:52:04.844Z,13.10
2022-11-03T17:54:34.327Z,13.10
2022-11-03T17:57:04.650Z,13.10
2022-11-03T17:59:34.439Z,13.10
2022-11-03T18:02:03.857Z,13.20
2022-11-03T18:04:32.118Z,13.20
2022-11-03T18:07:01.729Z,13.20
2022-11-03T18:09:29.862Z,13.20
2022-11-03T18:12:16.716Z,13.20
2022-11-03T18:14:44.985Z,13.20
2022-11-03T18:17:13.310Z,13.30
2022-11-03T18:19:41.591Z,13.40
2022-11-03T18:22:10.418Z,13.40
2022-11-03T18:24:38.614Z,13.40
2022-11-03T18:27:12.032Z,13.30
2022-11-03T18:29:40.289Z,13.30
2022-11-03T18:32:15.625Z,13.30
2022-11-03T18:34:44.102Z,13.40
2022-11-03T18:37:13.243Z,13.40
2022-11-03T18:39:41.641Z,13.40
2022-11-03T18:42:15.189Z,13.40
2022-11-03T18:44:44.465Z,13.40
2022-11-03T18:47:12.631Z,13.40
2022-11-03T18:49:40.943Z,13.40
2022-11-03T18:52:14.832Z,13.40
2022-11-03T18:54:46.945Z,13.40
2022-11-03T18:57:20.468Z,13.30
2022-11-03T18:59:48.812Z,13.30
2022-11-03T19:02:18.919Z,13.40
2022-11-03T19:04:47.793Z,13.30
2022-11-03T19:07:20.919Z,13.30
2022-11-03T19:09:49.173Z,13.30
2022-11-03T19:12:19.163Z,13.20
2022-11-03T19:14:48.985Z,13.20
2022-11-03T19:17:24.349Z,13.20
2022-11-03T19:19:53.188Z,13.10
2022-11-03T19:22:23.328Z,13.10
2022-11-03T19:24:51.674Z,13.10
2022-11-03T19:27:23.934Z,13.20
2022-11-03T19:29:52.164Z,13.20
2022-11-03T19:32:24.388Z,13.10
2022-11-03T19:34:57.062Z,13.10
2022-11-03T19:37:25.524Z,13.10
2022-11-03T19:39:53.913Z,13.10
2022-11-03T19:42:29.379Z,13.10
2022-11-03T19:44:58.114Z,13.00
2022-11-03T19:47:32.494Z,13.00
2022-11-03T19:50:02.749Z,13.00
2022-11-03T19:52:32.344Z,13.00
2022-11-03T19:55:05.468Z,13.00
2022-11-03T19:57:34.888Z,13.00
2022-11-03T20:00:03.573Z,13.00
2022-11-03T20:02:36.102Z,13.00
2022-11-03T20:05:04.399Z,13.00
2022-11-03T20:07:32.504Z,13.00
2022-11-03T20:10:02.266Z,13.00
2022-11-03T20:12:31.447Z,13.00
2022-11-03T20:15:00.793Z,13.00
2022-11-03T20:17:28.845Z,13.00
2022-11-03T20:19:57.048Z,13.00
2022-11-03T20:22:31.110Z,12.90
2022-11-03T20:25:02.985Z,12.90
2022-11-03T20:27:30.975Z,12.90
2022-11-03T20:30:00.379Z,13.00
2022-11-03T20:32:28.515Z,13.00
2022-11-03T20:34:56.541Z,13.00
2022-11-03T20:37:24.648Z,13.00
2022-11-03T20:39:52.675Z,12.90
2022-11-03T20:42:22.695Z,12.90
2022-11-03T20:44:51.024Z,12.90
2022-11-03T20:47:20.874Z,12.90
2022-11-03T20:49:48.879Z,12.90
2022-11-03T20:52:17.434Z,12.90
2022-11-03T20:54:45.767Z,12.90
2022-11-03T20:57:14.814Z,12.80
2022-11-03T20:59:42.876Z,12.90
2022-11-03T21:02:12.796Z,12.80
2022-11-03T21:04:43.173Z,12.90
2022-11-03T21:07:13.225Z,12.90
2022-11-03T21:09:41.677Z,12.90
2022-11-03T21:12:14.417Z,12.90
2022-11-03T21:15:00.490Z,12.90
2022-11-03T21:17:45.779Z,12.90
2022-11-03T21:20:15.197Z,12.90
2022-11-03T21:22:53.410Z,12.80
2022-11-03T21:25:24.541Z,12.80
2022-11-03T21:27:54.157Z,12.90
2022-11-03T21:30:23.057Z,12.90
2022-11-03T21:32:51.164Z,12.90
2022-11-03T21:35:22.453Z,12.90
2022-11-03T21:37:50.465Z,12.90
2022-11-03T21:40:18.941Z,12.90
2022-11-03T21:43:04.154Z,12.90
2022-11-03T21:45:32.310Z,12.90
2022-11-03T21:48:18.005Z,12.90
2022-11-03T21:50:47.952Z,12.90
2022-11-03T21:53:15.994Z,12.90
2022-11-03T21:55:43.969Z,12.80
2022-11-03T21:58:11.896Z,12.80
2022-11-03T22:00:39.933Z,12.80
2022-11-03T22:03:08.190Z,12.80
2022-11-03T22:05:36.457Z,12.80
2022-11-03T22:08:08.346Z,12.70
2022-11-03T22:10:39.171Z,12.70
2022-11-03T22:13:07.601Z,12.70
2022-11-03T22:15:53.091Z,12.70
2022-11-03T22:18:21.124Z,12.70
2022-11-03T22:21:05.816Z,12.80
2022-11-03T22:23:52.690Z,12.80
2022-11-03T22:26:38.284Z,12.80
2022-11-03T22:29:23.604Z,12.80
2022-11-03T22:31:51.599Z,12.80
2022-11-03T22:34:37.132Z,12.90
2022-11-03T22:37:05.112Z,12.90
2022-11-03T22:39:51.728Z,12.90
2022-11-03T22:42:33.687Z,13.00
2022-11-03T22:45:19.340Z,13.00
2022-11-03T22:47:47.308Z,13.00
2022-11-03T22:50:15.301Z,13.00
2022-11-03T22:52:43.228Z,13.00
2022-11-03T22:55:11.547Z,12.90
2022-11-03T22:57:39.516Z,12.90
2022-11-03T23:00:08.413Z,12.90
2022-11-03T23:02:36.477Z,12.90
2022-11-03T23:05:04.734Z,12.80
2022-11-03T23:07:37.081Z,12.80
2022-11-03T23:10:09.277Z,12.70
2022-11-03T23:12:38.631Z,12.70
2022-11-03T23:15:25.292Z,12.70
2022-11-03T23:18:10.904Z,12.70
2022-11-03T23:20:56.485Z,12.70
2022-11-03T23:23:42.118Z,12.60
2022-11-03T23:26:10.171Z,12.60
2022-11-03T23:28:39.526Z,12.60
2022-11-03T23:31:07.625Z,12.60
2022-11-03T23:33:36.377Z,12.60
2022-11-03T23:36:05.139Z,12.60
2022-11-03T23:38:33.531Z,12.60
2022-11-03T23:41:05.465Z,12.50
2022-11-03T23:43:33.460Z,12.60
2022-11-03T23:46:20.464Z,12.50
2022-11-03T23:48:49.048Z,12.50
2022-11-03T23:51:18.424Z,12.50
2022-11-03T23:53:47.189Z,12.50
2022-11-03T23:56:36.527Z,12.50
2022-11-03T23:59:05.318Z,12.50
